createdAt,value
2022-10-17T00:01:35.198Z,99.90
2022-10-17T00:04:01.950Z,99.90
2022-10-17T00:06:28.746Z,99.90
2022-10-17T00:08:55.583Z,99.90
2022-10-17T00:11:23.070Z,99.90
2022-10-17T00:13:50.626Z,99.90
2022-10-17T00:16:29.845Z,99.90
2022-10-17T00:18:56.881Z,99.90
2022-10-17T00:21:23.833Z,99.90
2022-10-17T00:23:50.729Z,99.90
2022-10-17T00:26:17.616Z,99.90
2022-10-17T00:28:48.380Z,99.90
2022-10-17T00:31:16.308Z,99.90
2022-10-17T00:33:44.094Z,99.90
2022-10-17T00:36:32.834Z,99.90
2022-10-17T00:39:00.758Z,99.90
2022-10-17T00:41:30.091Z,99.90
2022-10-17T00:44:05.299Z,99.90
2022-10-17T00:46:37.934Z,99.90
2022-10-17T00:49:09.134Z,99.90
2022-10-17T00:51:42.837Z,99.90
2022-10-17T00:54:10.318Z,99.90
2022-10-17T00:56:37.246Z,99.90
2022-10-17T01:01:38.827Z,99.90
2022-10-17T01:04:05.701Z,99.90
2022-10-17T01:06:32.706Z,99.90
2022-10-17T01:09:01.908Z,99.90
2022-10-17T01:12:07.164Z,99.90
2022-10-17T01:14:37.135Z,99.90
2022-10-17T01:17:25.250Z,99.90
2022-10-17T01:20:04.480Z,99.90
2022-10-17T01:22:46.009Z,99.90
2022-10-17T01:25:18.638Z,99.90
2022-10-17T01:28:53.322Z,99.90
2022-10-17T01:31:23.803Z,99.90
2022-10-17T01:34:07.387Z,99.90
2022-10-17T01:36:54.448Z,99.90
2022-10-17T01:39:36.834Z,99.90
2022-10-17T01:42:18.207Z,99.90
2022-10-17T01:44:47.033Z,99.90
2022-10-17T01:47:16.142Z,99.90
2022-10-17T01:49:43.439Z,99.90
2022-10-17T01:52:15.363Z,99.90
2022-10-17T01:54:46.698Z,99.90
2022-10-17T01:57:36.293Z,99.90
2022-10-17T02:00:05.232Z,99.90
2022-10-17T02:02:40.207Z,99.90
2022-10-17T02:05:07.430Z,99.90
2022-10-17T02:07:34.350Z,99.90
2022-10-17T02:10:01.179Z,99.90
2022-10-17T02:13:07.762Z,99.90
2022-10-17T02:15:45.626Z,99.90
2022-10-17T02:18:46.404Z,99.90
2022-10-17T02:21:29.009Z,99.90
2022-10-17T02:24:06.362Z,99.90
2022-10-17T02:26:41.780Z,99.90
2022-10-17T02:29:22.701Z,99.90
2022-10-17T02:31:58.212Z,99.90
2022-10-17T02:34:46.826Z,99.90
2022-10-17T02:37:16.387Z,99.90
2022-10-17T02:39:43.268Z,99.90
2022-10-17T02:42:12.435Z,99.90
2022-10-17T02:44:40.590Z,99.90
2022-10-17T02:47:19.597Z,99.90
2022-10-17T02:49:50.294Z,99.90
2022-10-17T02:52:26.481Z,99.90
2022-10-17T02:55:05.957Z,99.90
2022-10-17T02:57:36.194Z,99.90
2022-10-17T03:00:04.826Z,99.90
2022-10-17T03:02:48.550Z,99.90
2022-10-17T03:05:27.284Z,99.90
2022-10-17T03:07:54.335Z,99.90
2022-10-17T03:10:22.063Z,99.90
2022-10-17T03:12:49.065Z,99.90
2022-10-17T03:15:16.242Z,99.90
2022-10-17T03:17:43.225Z,99.90
2022-10-17T03:20:10.941Z,99.90
2022-10-17T03:22:37.790Z,99.90
2022-10-17T03:25:06.144Z,99.90
2022-10-17T03:27:35.395Z,99.90
2022-10-17T03:30:02.385Z,99.90
2022-10-17T03:32:33.531Z,99.90
2022-10-17T03:35:00.387Z,99.90
2022-10-17T03:37:27.917Z,99.90
2022-10-17T03:39:55.286Z,99.90
2022-10-17T03:42:22.161Z,99.90
2022-10-17T03:44:49.034Z,99.90
2022-10-17T03:47:15.818Z,99.90
2022-10-17T03:49:44.142Z,99.90
2022-10-17T03:52:12.679Z,99.90
2022-10-17T03:54:39.690Z,99.90
2022-10-17T03:57:06.977Z,99.90
2022-10-17T03:59:34.246Z,99.90
2022-10-17T04:02:05.603Z,99.90
2022-10-17T04:04:32.418Z,99.90
2022-10-17T04:06:59.239Z,99.90
2022-10-17T04:09:26.748Z,99.90
2022-10-17T04:11:59.657Z,99.90
2022-10-17T04:14:26.876Z,99.90
2022-10-17T04:16:54.151Z,99.90
2022-10-17T04:19:21.844Z,99.90
2022-10-17T04:21:49.753Z,99.90
2022-10-17T04:24:17.606Z,99.90
2022-10-17T04:27:00.960Z,99.90
2022-10-17T04:29:30.322Z,99.90
2022-10-17T04:32:05.673Z,99.90
2022-10-17T04:34:43.215Z,99.90
2022-10-17T04:37:10.326Z,99.90
2022-10-17T04:39:37.721Z,99.90
2022-10-17T04:42:05.401Z,99.90
2022-10-17T04:44:33.632Z,99.90
2022-10-17T04:47:01.294Z,99.90
2022-10-17T04:49:28.263Z,99.90
2022-10-17T04:52:05.660Z,99.90
2022-10-17T04:54:48.095Z,99.90
2022-10-17T04:57:15.113Z,99.90
2022-10-17T04:59:48.415Z,99.90
2022-10-17T05:02:47.472Z,99.90
2022-10-17T05:05:15.173Z,99.90
2022-10-17T05:07:44.253Z,99.90
2022-10-17T05:10:13.983Z,99.90
2022-10-17T05:12:44.329Z,99.90
2022-10-17T05:15:12.463Z,99.90
2022-10-17T05:17:39.321Z,99.90
2022-10-17T05:20:07.873Z,99.90
2022-10-17T05:22:38.325Z,99.90
2022-10-17T05:25:08.871Z,99.90
2022-10-17T05:27:35.695Z,99.90
2022-10-17T05:30:02.671Z,99.90
2022-10-17T05:32:33.510Z,99.90
2022-10-17T05:35:01.217Z,99.90
2022-10-17T05:37:29.398Z,99.90
2022-10-17T05:39:57.096Z,99.90
2022-10-17T05:42:24.983Z,99.90
2022-10-17T05:44:52.056Z,99.90
2022-10-17T05:47:19.882Z,99.90
2022-10-17T05:49:51.558Z,99.90
2022-10-17T05:52:23.409Z,99.90
2022-10-17T05:55:01.117Z,99.90
2022-10-17T05:57:28.109Z,99.90
2022-10-17T05:59:56.265Z,99.90
2022-10-17T06:02:23.394Z,99.90
2022-10-17T06:04:50.406Z,99.90
2022-10-17T06:07:19.301Z,99.90
2022-10-17T06:09:47.861Z,99.90
2022-10-17T06:12:15.170Z,99.90
2022-10-17T06:14:43.250Z,99.90
2022-10-17T06:17:15.724Z,99.90
2022-10-17T06:19:44.828Z,99.90
2022-10-17T06:22:13.362Z,99.90
2022-10-17T06:24:40.555Z,99.90
2022-10-17T06:27:11.052Z,99.90
2022-10-17T06:29:39.838Z,99.90
2022-10-17T06:32:09.825Z,99.90
2022-10-17T06:34:40.715Z,99.90
2022-10-17T06:37:07.681Z,99.90
2022-10-17T06:39:38.752Z,99.90
2022-10-17T06:42:15.833Z,99.90
2022-10-17T06:45:09.465Z,99.90
2022-10-17T06:47:41.463Z,99.90
2022-10-17T06:50:28.578Z,99.90
2022-10-17T06:53:07.556Z,99.90
2022-10-17T06:55:54.053Z,99.90
2022-10-17T06:58:39.163Z,99.90
2022-10-17T07:01:12.624Z,99.90
2022-10-17T07:03:40.987Z,99.90
2022-10-17T07:06:08.094Z,99.90
2022-10-17T07:08:34.917Z,99.90
2022-10-17T07:11:13.581Z,99.90
2022-10-17T07:13:40.597Z,99.90
2022-10-17T07:16:07.614Z,99.90
2022-10-17T07:18:35.441Z,99.90
2022-10-17T07:21:02.314Z,99.90
2022-10-17T07:23:30.331Z,99.90
2022-10-17T07:26:01.585Z,99.90
2022-10-17T07:28:29.316Z,99.90
2022-10-17T07:31:09.353Z,99.90
2022-10-17T07:33:37.022Z,99.90
2022-10-17T07:36:04.206Z,99.90
2022-10-17T07:38:31.175Z,99.90
2022-10-17T07:40:59.404Z,99.90
2022-10-17T07:43:26.274Z,99.90
2022-10-17T07:45:54.266Z,99.90
2022-10-17T07:48:21.837Z,99.90
2022-10-17T07:50:48.981Z,99.90
2022-10-17T07:53:15.914Z,99.90
2022-10-17T07:55:43.155Z,99.90
2022-10-17T07:58:10.089Z,99.90
2022-10-17T08:00:37.053Z,99.90
2022-10-17T08:03:04.342Z,99.90
2022-10-17T08:05:31.441Z,99.90
2022-10-17T08:07:58.542Z,99.90
2022-10-17T08:10:27.750Z,99.90
2022-10-17T08:12:55.284Z,99.90
2022-10-17T08:15:22.494Z,99.90
2022-10-17T08:17:49.342Z,99.90
2022-10-17T08:20:16.297Z,99.90
2022-10-17T08:22:43.216Z,99.90
2022-10-17T08:25:10.205Z,99.90
2022-10-17T08:27:37.022Z,99.90
2022-10-17T08:30:04.064Z,99.90
2022-10-17T08:32:31.203Z,99.90
2022-10-17T08:34:58.206Z,99.90
2022-10-17T08:37:25.239Z,99.90
2022-10-17T08:39:52.045Z,99.90
2022-10-17T08:42:51.198Z,99.90
2022-10-17T08:45:47.785Z,99.90
2022-10-17T08:48:19.123Z,99.90
2022-10-17T08:50:51.725Z,99.90
2022-10-17T08:53:26.518Z,99.90
2022-10-17T08:55:53.655Z,99.90
2022-10-17T08:58:23.395Z,99.90
2022-10-17T09:00:56.477Z,99.90
2022-10-17T09:03:30.004Z,99.90
2022-10-17T09:06:11.228Z,99.90
2022-10-17T09:08:48.142Z,99.90
2022-10-17T09:11:48.933Z,99.90
2022-10-17T09:14:18.779Z,99.90
2022-10-17T09:17:08.003Z,99.90
2022-10-17T09:19:43.655Z,99.90
2022-10-17T09:22:17.142Z,99.90
2022-10-17T09:24:51.365Z,99.90
2022-10-17T09:27:23.773Z,99.90
2022-10-17T09:29:54.722Z,99.90
2022-10-17T09:32:24.121Z,99.90
2022-10-17T09:34:52.719Z,99.90
2022-10-17T09:37:19.566Z,99.90
2022-10-17T09:39:46.411Z,99.90
2022-10-17T09:42:14.962Z,99.90
2022-10-17T09:45:11.755Z,99.90
2022-10-17T09:47:44.279Z,99.90
2022-10-17T09:50:27.706Z,99.90
2022-10-17T09:52:54.634Z,99.90
2022-10-17T09:55:28.315Z,99.90
2022-10-17T09:57:58.894Z,99.90
2022-10-17T10:00:28.230Z,99.90
2022-10-17T10:03:10.510Z,99.90
2022-10-17T10:05:37.377Z,99.90
2022-10-17T10:08:06.313Z,99.90
2022-10-17T10:10:33.235Z,99.90
2022-10-17T10:13:15.130Z,99.90
2022-10-17T10:15:45.982Z,99.90
2022-10-17T10:18:25.156Z,99.90
2022-10-17T10:21:23.060Z,99.90
2022-10-17T10:24:13.336Z,99.90
2022-10-17T10:26:40.148Z,99.90
2022-10-17T10:29:20.364Z,99.90
2022-10-17T10:31:47.227Z,99.90
2022-10-17T10:34:20.950Z,99.90
2022-10-17T10:36:58.907Z,99.90
2022-10-17T10:39:33.632Z,99.90
2022-10-17T10:42:01.639Z,99.90
2022-10-17T10:44:29.572Z,99.90
2022-10-17T10:47:19.989Z,99.90
2022-10-17T10:49:46.903Z,99.90
2022-10-17T10:52:24.442Z,99.90
2022-10-17T10:54:55.783Z,99.90
2022-10-17T10:57:23.849Z,99.90
2022-10-17T10:59:53.797Z,99.90
2022-10-17T11:02:35.539Z,99.90
2022-10-17T11:05:40.052Z,99.90
2022-10-17T11:08:29.698Z,99.90
2022-10-17T11:11:18.016Z,99.90
2022-10-17T11:13:59.197Z,99.90
2022-10-17T11:16:31.806Z,99.90
2022-10-17T11:19:07.312Z,99.90
2022-10-17T11:21:58.414Z,99.90
2022-10-17T11:24:46.587Z,99.90
2022-10-17T11:27:13.446Z,99.90
2022-10-17T11:29:41.023Z,99.90
2022-10-17T11:32:23.001Z,99.90
2022-10-17T11:35:20.154Z,99.90
2022-10-17T11:37:50.446Z,99.90
2022-10-17T11:40:27.794Z,99.90
2022-10-17T11:42:59.850Z,99.90
2022-10-17T11:45:28.250Z,99.90
2022-10-17T11:48:04.357Z,99.90
2022-10-17T11:53:24.846Z,99.90
2022-10-17T11:55:52.499Z,99.90
2022-10-17T11:58:30.714Z,99.90
2022-10-17T12:01:06.794Z,99.90
2022-10-17T12:03:55.133Z,99.90
2022-10-17T12:06:46.872Z,99.90
2022-10-17T12:09:25.393Z,99.90
2022-10-17T12:11:55.847Z,99.90
2022-10-17T12:14:42.074Z,99.90
2022-10-17T12:17:29.349Z,99.90
2022-10-17T12:20:23.402Z,99.90
2022-10-17T12:22:51.508Z,99.90
2022-10-17T12:25:20.332Z,99.90
2022-10-17T12:27:47.714Z,99.90
2022-10-17T12:30:21.752Z,99.90
2022-10-17T12:33:14.155Z,99.90
2022-10-17T12:35:40.978Z,99.90
2022-10-17T12:38:19.509Z,99.90
2022-10-17T12:40:50.740Z,99.90
2022-10-17T12:43:17.531Z,99.90
2022-10-17T12:45:54.758Z,99.90
2022-10-17T12:48:34.017Z,99.90
2022-10-17T12:54:09.770Z,99.90
2022-10-17T12:56:41.431Z,99.90
2022-10-17T12:59:16.971Z,99.90
2022-10-17T13:01:46.287Z,99.90
2022-10-17T13:04:13.372Z,99.90
2022-10-17T13:06:48.134Z,99.90
2022-10-17T13:09:22.860Z,99.90
2022-10-17T13:11:49.834Z,99.90
2022-10-17T13:14:17.363Z,99.90
2022-10-17T13:16:58.510Z,99.90
2022-10-17T13:19:28.487Z,99.90
2022-10-17T13:21:58.750Z,99.90
2022-10-17T13:24:32.659Z,99.90
2022-10-17T13:26:59.709Z,99.90
2022-10-17T13:29:28.559Z,99.90
2022-10-17T13:31:57.842Z,99.90
2022-10-17T13:34:25.502Z,99.90
2022-10-17T13:37:03.366Z,99.90
2022-10-17T13:39:54.430Z,99.90
2022-10-17T13:42:27.963Z,99.90
2022-10-17T13:44:55.210Z,99.90
2022-10-17T13:47:30.739Z,99.90
2022-10-17T13:49:58.145Z,99.90
2022-10-17T13:52:27.413Z,99.90
2022-10-17T13:54:57.018Z,99.90
2022-10-17T13:57:25.631Z,99.90
2022-10-17T14:00:09.881Z,99.90
2022-10-17T14:02:41.253Z,99.90
2022-10-17T14:05:17.882Z,99.90
2022-10-17T14:08:22.957Z,99.90
2022-10-17T14:10:48.305Z,99.90
2022-10-17T14:13:20.960Z,99.90
2022-10-17T14:15:47.824Z,99.90
2022-10-17T14:18:19.641Z,99.90
2022-10-17T14:23:36.197Z,99.90
2022-10-17T14:26:16.676Z,99.90
2022-10-17T14:28:45.446Z,99.90
2022-10-17T14:31:28.814Z,99.90
2022-10-17T14:33:55.749Z,99.90
2022-10-17T14:36:34.207Z,99.90
2022-10-17T14:39:01.848Z,99.90
2022-10-17T14:41:47.831Z,99.90
2022-10-17T14:44:23.341Z,99.90
2022-10-17T14:46:53.421Z,99.90
2022-10-17T14:49:28.704Z,99.90
2022-10-17T14:52:15.101Z,99.90
2022-10-17T14:54:49.529Z,99.90
2022-10-17T14:57:50.069Z,99.90
2022-10-17T15:00:18.121Z,99.90
2022-10-17T15:02:45.356Z,99.90
2022-10-17T15:05:13.560Z,99.90
2022-10-17T15:07:41.026Z,99.90
2022-10-17T15:10:23.519Z,99.90
2022-10-17T15:12:58.825Z,99.90
2022-10-17T15:15:31.651Z,99.90
2022-10-17T15:17:58.482Z,99.90
2022-10-17T15:20:27.816Z,99.90
2022-10-17T15:22:54.962Z,99.90
2022-10-17T15:25:21.840Z,99.90
2022-10-17T15:27:48.626Z,99.90
2022-10-17T15:30:21.608Z,99.90
2022-10-17T15:32:49.137Z,99.90
2022-10-17T15:35:16.376Z,99.80
2022-10-17T15:37:43.710Z,99.70
2022-10-17T15:40:15.092Z,99.80
2022-10-17T15:42:42.005Z,99.10
2022-10-17T15:45:11.044Z,99.60
2022-10-17T15:47:37.987Z,99.50
2022-10-17T15:50:06.585Z,99.10
2022-10-17T15:52:33.355Z,98.60
2022-10-17T15:55:04.153Z,98.90
2022-10-17T15:57:36.118Z,98.10
2022-10-17T16:00:03.444Z,97.60
2022-10-17T16:02:36.180Z,97.30
2022-10-17T16:05:05.799Z,97.10
2022-10-17T16:07:32.904Z,97.30
2022-10-17T16:09:59.897Z,98.00
2022-10-17T16:12:28.299Z,97.00
2022-10-17T16:14:55.515Z,97.10
2022-10-17T16:17:22.380Z,97.30
2022-10-17T16:19:49.976Z,96.90
2022-10-17T16:22:25.016Z,97.50
2022-10-17T16:24:58.244Z,97.50
2022-10-17T16:27:25.877Z,97.80
2022-10-17T16:29:52.652Z,97.90
2022-10-17T16:32:19.463Z,98.20
2022-10-17T16:34:46.229Z,98.40
2022-10-17T16:37:13.070Z,98.40
2022-10-17T16:39:39.808Z,98.60
2022-10-17T16:42:06.936Z,98.80
2022-10-17T16:44:33.848Z,99.30
2022-10-17T16:47:00.812Z,99.20
2022-10-17T16:49:27.592Z,99.40
2022-10-17T16:51:54.445Z,99.60
2022-10-17T16:54:21.249Z,99.90
2022-10-17T16:56:49.069Z,99.90
2022-10-17T16:59:15.839Z,99.90
2022-10-17T17:01:42.608Z,99.90
2022-10-17T17:04:09.655Z,99.90
2022-10-17T17:06:36.709Z,99.90
2022-10-17T17:09:03.609Z,99.90
2022-10-17T17:11:31.432Z,99.90
2022-10-17T17:13:58.644Z,99.90
2022-10-17T17:16:26.431Z,99.90
2022-10-17T17:19:00.873Z,99.90
2022-10-17T17:21:27.913Z,99.90
2022-10-17T17:23:57.243Z,99.90
2022-10-17T17:26:24.249Z,99.90
2022-10-17T17:28:51.122Z,99.90
2022-10-17T17:31:22.337Z,99.90
2022-10-17T17:33:49.498Z,99.90
2022-10-17T17:36:19.121Z,99.90
2022-10-17T17:38:46.093Z,99.90
2022-10-17T17:41:13.961Z,99.90
2022-10-17T17:43:41.133Z,99.90
2022-10-17T17:46:07.944Z,99.90
2022-10-17T17:48:37.599Z,99.90
2022-10-17T17:51:05.441Z,99.90
2022-10-17T17:53:32.245Z,99.90
2022-10-17T17:56:07.162Z,99.90
2022-10-17T17:58:34.711Z,99.90
2022-10-17T18:01:01.889Z,99.90
2022-10-17T18:03:28.792Z,99.90
2022-10-17T18:05:55.641Z,99.90
2022-10-17T18:08:23.216Z,99.90
2022-10-17T18:10:51.257Z,99.90
2022-10-17T18:13:18.132Z,99.90
2022-10-17T18:15:44.934Z,99.90
2022-10-17T18:18:11.698Z,99.90
2022-10-17T18:20:42.329Z,99.90
2022-10-17T18:23:09.889Z,99.90
2022-10-17T18:25:36.743Z,99.90
2022-10-17T18:28:04.067Z,99.90
2022-10-17T18:30:33.730Z,99.90
2022-10-17T18:33:01.300Z,99.90
2022-10-17T18:35:28.158Z,99.90
2022-10-17T18:37:56.989Z,99.90
2022-10-17T18:40:23.812Z,99.90
2022-10-17T18:42:50.580Z,99.90
2022-10-17T18:45:17.480Z,99.90
2022-10-17T18:47:47.116Z,99.90
2022-10-17T18:50:14.637Z,99.90
2022-10-17T18:52:43.561Z,99.90
2022-10-17T18:55:13.250Z,99.90
2022-10-17T18:57:40.093Z,99.90
2022-10-17T19:00:07.736Z,99.90
2022-10-17T19:02:37.252Z,99.90
2022-10-17T19:05:05.126Z,99.90
2022-10-17T19:07:32.134Z,99.90
2022-10-17T19:09:59.272Z,99.90
2022-10-17T19:12:26.156Z,99.90
2022-10-17T19:14:53.102Z,99.90
2022-10-17T19:17:19.930Z,99.90
2022-10-17T19:19:50.140Z,99.90
2022-10-17T19:22:17.025Z,99.90
2022-10-17T19:24:43.810Z,99.90
2022-10-17T19:27:12.178Z,99.90
2022-10-17T19:29:43.394Z,99.90
2022-10-17T19:32:15.651Z,99.90
2022-10-17T19:34:44.903Z,99.90
2022-10-17T19:37:11.699Z,99.90
2022-10-17T19:39:38.613Z,99.90
2022-10-17T19:42:06.979Z,99.90
2022-10-17T19:44:34.633Z,99.90
2022-10-17T19:47:01.490Z,99.90
2022-10-17T19:49:28.495Z,99.90
2022-10-17T19:51:57.524Z,99.90
2022-10-17T19:54:24.333Z,99.90
2022-10-17T19:56:51.225Z,99.90
2022-10-17T19:59:18.159Z,99.90
2022-10-17T20:01:45.126Z,99.90
2022-10-17T20:04:12.267Z,99.90
2022-10-17T20:06:39.595Z,99.90
2022-10-17T20:09:07.342Z,99.90
2022-10-17T20:11:35.777Z,99.90
2022-10-17T20:14:02.629Z,99.90
2022-10-17T20:16:31.776Z,99.90
2022-10-17T20:19:03.193Z,99.90
2022-10-17T20:21:36.330Z,99.90
2022-10-17T20:24:04.524Z,99.90
2022-10-17T20:26:39.621Z,99.90
2022-10-17T20:29:16.106Z,99.90
2022-10-17T20:31:43.877Z,99.90
2022-10-17T20:34:13.192Z,99.90
2022-10-17T20:36:40.302Z,99.90
2022-10-17T20:39:07.270Z,99.90
2022-10-17T20:41:34.390Z,99.90
2022-10-17T20:44:01.186Z,99.90
2022-10-17T20:46:37.151Z,99.90
2022-10-17T20:49:05.884Z,99.90
2022-10-17T20:51:33.096Z,99.90
2022-10-17T20:53:59.912Z,99.90
2022-10-17T20:56:28.596Z,99.90
2022-10-17T20:58:57.001Z,99.90
2022-10-17T21:01:24.239Z,99.90
2022-10-17T21:03:51.221Z,99.90
2022-10-17T21:06:18.139Z,99.90
2022-10-17T21:08:45.587Z,99.90
2022-10-17T21:11:23.197Z,99.90
2022-10-17T21:13:57.510Z,99.90
2022-10-17T21:16:24.615Z,99.90
2022-10-17T21:18:51.542Z,99.90
2022-10-17T21:21:18.433Z,99.90
2022-10-17T21:23:46.090Z,99.90
2022-10-17T21:26:12.985Z,99.90
2022-10-17T21:28:42.752Z,99.90
2022-10-17T21:31:18.416Z,99.90
2022-10-17T21:33:47.233Z,99.90
2022-10-17T21:36:16.240Z,99.90
2022-10-17T21:38:46.814Z,99.90
2022-10-17T21:41:14.509Z,99.90
2022-10-17T21:43:41.645Z,99.90
2022-10-17T21:46:10.668Z,99.90
2022-10-17T21:48:37.803Z,99.90
2022-10-17T21:51:06.641Z,99.90
2022-10-17T21:53:33.675Z,99.90
2022-10-17T21:56:03.821Z,99.90
2022-10-17T21:58:30.820Z,99.90
2022-10-17T22:01:09.023Z,99.90
2022-10-17T22:03:36.821Z,99.90
2022-10-17T22:06:13.030Z,99.90
2022-10-17T22:08:51.246Z,99.90
2022-10-17T22:11:21.588Z,99.90
2022-10-17T22:13:48.650Z,99.90
2022-10-17T22:16:16.059Z,99.90
2022-10-17T22:18:42.964Z,99.90
2022-10-17T22:21:13.617Z,99.90
2022-10-17T22:23:41.507Z,99.90
2022-10-17T22:26:08.494Z,99.90
2022-10-17T22:28:35.653Z,99.90
2022-10-17T22:31:02.574Z,99.90
2022-10-17T22:33:31.321Z,99.90
2022-10-17T22:35:58.078Z,99.90
2022-10-17T22:38:24.914Z,99.90
2022-10-17T22:40:51.683Z,99.90
2022-10-17T22:43:18.441Z,99.90
2022-10-17T22:45:55.070Z,99.90
2022-10-17T22:48:22.187Z,99.90
2022-10-17T22:50:49.573Z,99.90
2022-10-17T22:53:23.729Z,99.90
2022-10-17T22:55:52.381Z,99.90
2022-10-17T22:58:20.023Z,99.90
2022-10-17T23:00:47.799Z,99.90
2022-10-17T23:03:14.787Z,99.90
2022-10-17T23:05:41.634Z,99.90
2022-10-17T23:08:08.462Z,99.90
2022-10-17T23:10:35.447Z,99.90
2022-10-17T23:13:02.380Z,99.90
2022-10-17T23:15:30.082Z,99.90
2022-10-17T23:17:56.871Z,99.90
2022-10-17T23:20:23.658Z,99.90
2022-10-17T23:22:50.415Z,99.90
2022-10-17T23:25:17.320Z,99.90
2022-10-17T23:27:44.058Z,99.90
2022-10-17T23:30:11.791Z,99.90
2022-10-17T23:32:39.494Z,99.90
2022-10-17T23:35:06.548Z,99.90
2022-10-17T23:37:34.702Z,99.90
2022-10-17T23:40:01.751Z,99.90
2022-10-17T23:42:28.626Z,99.90
2022-10-17T23:44:55.382Z,99.90
2022-10-17T23:47:22.230Z,99.90
2022-10-17T23:49:49.055Z,99.90
2022-10-17T23:52:15.790Z,99.90
2022-10-17T23:57:14.293Z,99.90
2022-10-17T23:59:41.114Z,99.90
